sensor_id;sensor_type;location;lat;lon;timestamp;pressure;altitude;pressure_sealevel;temperature;humidity
71109;BME280;59614;51.012;-1.648;2023-05-15T00:02:13;100926.91;;;13.92;79.38
71109;BME280;59614;51.012;-1.648;2023-05-15T00:04:39;100935.63;;;13.97;79.20
71109;BME280;59614;51.012;-1.648;2023-05-15T00:07:05;100934.78;;;13.97;79.58
71109;BME280;59614;51.012;-1.648;2023-05-15T00:09:30;100938.28;;;13.97;79.15
71109;BME280;59614;51.012;-1.648;2023-05-15T00:11:56;100940.19;;;13.92;80.88
71109;BME280;59614;51.012;-1.648;2023-05-15T00:14:23;100949.75;;;13.99;83.09
71109;BME280;59614;51.012;-1.648;2023-05-15T00:16:49;100931.41;;;13.88;84.62
71109;BME280;59614;51.012;-1.648;2023-05-15T00:19:15;100929.00;;;13.78;87.02
71109;BME280;59614;51.012;-1.648;2023-05-15T00:21:40;100927.13;;;13.83;88.13
71109;BME280;59614;51.012;-1.648;2023-05-15T00:24:06;100923.88;;;13.68;87.47
71109;BME280;59614;51.012;-1.648;2023-05-15T00:26:31;100925.63;;;13.69;89.47
71109;BME280;59614;51.012;-1.648;2023-05-15T00:28:57;100928.75;;;13.48;88.89
71109;BME280;59614;51.012;-1.648;2023-05-15T00:31:22;100935.78;;;13.49;90.40
71109;BME280;59614;51.012;-1.648;2023-05-15T00:33:47;100920.94;;;13.38;92.53
71109;BME280;59614;51.012;-1.648;2023-05-15T00:36:13;100933.25;;;13.42;93.50
71109;BME280;59614;51.012;-1.648;2023-05-15T00:38:38;100929.47;;;13.09;92.49
71109;BME280;59614;51.012;-1.648;2023-05-15T00:41:05;100926.56;;;13.21;93.94
71109;BME280;59614;51.012;-1.648;2023-05-15T00:43:32;100923.06;;;13.19;95.60
71109;BME280;59614;51.012;-1.648;2023-05-15T00:45:59;100921.66;;;13.01;95.48
71109;BME280;59614;51.012;-1.648;2023-05-15T00:48:26;100916.34;;;13.01;94.76
71109;BME280;59614;51.012;-1.648;2023-05-15T00:50:53;100920.72;;;13.04;96.08
71109;BME280;59614;51.012;-1.648;2023-05-15T00:53:19;100920.66;;;13.07;95.16
71109;BME280;59614;51.012;-1.648;2023-05-15T00:55:45;100923.16;;;13.15;96.04
71109;BME280;59614;51.012;-1.648;2023-05-15T00:58:13;100917.44;;;12.89;96.45
71109;BME280;59614;51.012;-1.648;2023-05-15T01:00:41;100919.75;;;12.56;97.85
71109;BME280;59614;51.012;-1.648;2023-05-15T01:03:07;100915.19;;;12.66;98.38
71109;BME280;59614;51.012;-1.648;2023-05-15T01:05:32;100909.88;;;12.67;98.87
71109;BME280;59614;51.012;-1.648;2023-05-15T01:10:43;100915.09;;;12.72;100.00
71109;BME280;59614;51.012;-1.648;2023-05-15T01:13:10;100921.97;;;12.84;99.54
71109;BME280;59614;51.012;-1.648;2023-05-15T01:15:36;100916.75;;;12.79;100.00
71109;BME280;59614;51.012;-1.648;2023-05-15T01:18:02;100918.19;;;12.96;100.00
71109;BME280;59614;51.012;-1.648;2023-05-15T01:20:28;100921.91;;;12.86;100.00
71109;BME280;59614;51.012;-1.648;2023-05-15T01:23:11;100926.53;;;12.74;100.00
71109;BME280;59614;51.012;-1.648;2023-05-15T01:28:41;100913.88;;;12.92;100.00
71109;BME280;59614;51.012;-1.648;2023-05-15T01:31:14;100919.94;;;12.97;100.00
71109;BME280;59614;51.012;-1.648;2023-05-15T01:33:45;100915.22;;;13.13;100.00
71109;BME280;59614;51.012;-1.648;2023-05-15T01:36:22;100915.41;;;13.05;100.00
71109;BME280;59614;51.012;-1.648;2023-05-15T01:38:53;100911.72;;;13.12;100.00
71109;BME280;59614;51.012;-1.648;2023-05-15T01:42:02;100914.31;;;13.16;100.00
71109;BME280;59614;51.012;-1.648;2023-05-15T01:44:25;100909.91;;;13.15;100.00
71109;BME280;59614;51.012;-1.648;2023-05-15T01:46:55;100906.28;;;13.19;100.00
71109;BME280;59614;51.012;-1.648;2023-05-15T01:49:24;100917.06;;;13.11;100.00
71109;BME280;59614;51.012;-1.648;2023-05-15T01:52:00;100911.81;;;13.08;100.00
71109;BME280;59614;51.012;-1.648;2023-05-15T01:54:28;100911.81;;;13.08;100.00
71109;BME280;59614;51.012;-1.648;2023-05-15T01:56:54;100917.38;;;12.94;100.00
71109;BME280;59614;51.012;-1.648;2023-05-15T01:59:22;100909.47;;;12.91;100.00
71109;BME280;59614;51.012;-1.648;2023-05-15T02:01:49;100914.72;;;12.94;100.00
71109;BME280;59614;51.012;-1.648;2023-05-15T02:04:16;100911.31;;;12.86;100.00
71109;BME280;59614;51.012;-1.648;2023-05-15T02:06:42;100916.94;;;12.67;100.00
71109;BME280;59614;51.012;-1.648;2023-05-15T02:09:09;100918.50;;;12.80;100.00
71109;BME280;59614;51.012;-1.648;2023-05-15T02:11:35;100917.59;;;12.80;100.00
71109;BME280;59614;51.012;-1.648;2023-05-15T02:14:01;100918.91;;;12.56;100.00
71109;BME280;59614;51.012;-1.648;2023-05-15T02:16:28;100912.69;;;12.60;100.00
71109;BME280;59614;51.012;-1.648;2023-05-15T02:18:54;100923.44;;;12.49;100.00
71109;BME280;59614;51.012;-1.648;2023-05-15T02:21:19;100913.03;;;12.36;100.00
71109;BME280;59614;51.012;-1.648;2023-05-15T02:23:45;100919.88;;;12.50;100.00
71109;BME280;59614;51.012;-1.648;2023-05-15T02:28:57;100930.19;;;12.11;100.00
71109;BME280;59614;51.012;-1.648;2023-05-15T02:34:38;100934.69;;;12.05;100.00
71109;BME280;59614;51.012;-1.648;2023-05-15T02:37:10;100946.03;;;12.15;100.00
71109;BME280;59614;51.012;-1.648;2023-05-15T02:39:38;100954.00;;;12.12;100.00
71109;BME280;59614;51.012;-1.648;2023-05-15T02:42:05;100949.75;;;11.99;100.00
71109;BME280;59614;51.012;-1.648;2023-05-15T02:44:32;100949.31;;;12.30;100.00
71109;BME280;59614;51.012;-1.648;2023-05-15T02:47:00;100953.31;;;11.95;100.00
71109;BME280;59614;51.012;-1.648;2023-05-15T02:49:25;100954.25;;;11.89;100.00
71109;BME280;59614;51.012;-1.648;2023-05-15T02:51:51;100965.78;;;11.85;100.00
71109;BME280;59614;51.012;-1.648;2023-05-15T02:54:17;100968.56;;;11.76;100.00
71109;BME280;59614;51.012;-1.648;2023-05-15T02:56:42;100966.97;;;11.61;100.00
71109;BME280;59614;51.012;-1.648;2023-05-15T02:59:08;100967.97;;;11.50;100.00
71109;BME280;59614;51.012;-1.648;2023-05-15T03:01:33;100979.75;;;11.21;100.00
71109;BME280;59614;51.012;-1.648;2023-05-15T03:03:59;100979.22;;;10.82;100.00
71109;BME280;59614;51.012;-1.648;2023-05-15T03:06:24;100982.81;;;10.75;100.00
71109;BME280;59614;51.012;-1.648;2023-05-15T03:08:49;100989.75;;;10.85;100.00
71109;BME280;59614;51.012;-1.648;2023-05-15T03:11:15;100991.66;;;10.68;100.00
71109;BME280;59614;51.012;-1.648;2023-05-15T03:13:43;100987.25;;;10.65;100.00
71109;BME280;59614;51.012;-1.648;2023-05-15T03:16:08;100990.78;;;10.69;100.00
71109;BME280;59614;51.012;-1.648;2023-05-15T03:18:34;100992.44;;;10.80;100.00
71109;BME280;59614;51.012;-1.648;2023-05-15T03:20:59;100992.50;;;10.74;100.00
71109;BME280;59614;51.012;-1.648;2023-05-15T03:23:24;100990.78;;;10.67;100.00
71109;BME280;59614;51.012;-1.648;2023-05-15T03:25:50;101000.41;;;10.76;100.00
71109;BME280;59614;51.012;-1.648;2023-05-15T03:28:15;100991.47;;;10.88;100.00
71109;BME280;59614;51.012;-1.648;2023-05-15T03:30:44;100993.25;;;10.90;100.00
71109;BME280;59614;51.012;-1.648;2023-05-15T03:33:09;100984.34;;;10.99;100.00
71109;BME280;59614;51.012;-1.648;2023-05-15T03:35:34;100994.22;;;10.77;100.00
71109;BME280;59614;51.012;-1.648;2023-05-15T03:38:00;100996.03;;;10.73;100.00
71109;BME280;59614;51.012;-1.648;2023-05-15T03:40:25;100988.94;;;10.75;100.00
71109;BME280;59614;51.012;-1.648;2023-05-15T03:42:51;100984.59;;;10.70;100.00
71109;BME280;59614;51.012;-1.648;2023-05-15T03:45:18;100993.41;;;10.69;100.00
71109;BME280;59614;51.012;-1.648;2023-05-15T03:47:43;100992.38;;;10.87;100.00
71109;BME280;59614;51.012;-1.648;2023-05-15T03:50:09;100987.75;;;11.10;100.00
71109;BME280;59614;51.012;-1.648;2023-05-15T03:52:35;100996.63;;;11.05;100.00
71109;BME280;59614;51.012;-1.648;2023-05-15T03:55:00;100999.25;;;11.06;100.00
71109;BME280;59614;51.012;-1.648;2023-05-15T03:57:26;101003.63;;;11.09;100.00
71109;BME280;59614;51.012;-1.648;2023-05-15T03:59:51;101001.22;;;10.82;100.00
71109;BME280;59614;51.012;-1.648;2023-05-15T04:02:17;101002.97;;;10.82;100.00
71109;BME280;59614;51.012;-1.648;2023-05-15T04:04:42;100998.69;;;10.69;100.00
71109;BME280;59614;51.012;-1.648;2023-05-15T04:07:08;100995.09;;;10.79;100.00
71109;BME280;59614;51.012;-1.648;2023-05-15T04:09:34;100999.50;;;10.75;100.00
71109;BME280;59614;51.012;-1.648;2023-05-15T04:11:59;101005.66;;;10.79;100.00
71109;BME280;59614;51.012;-1.648;2023-05-15T04:14:25;101014.50;;;10.72;100.00
71109;BME280;59614;51.012;-1.648;2023-05-15T04:16:50;101004.91;;;10.61;100.00
71109;BME280;59614;51.012;-1.648;2023-05-15T04:19:16;101012.78;;;10.68;99.60
71109;BME280;59614;51.012;-1.648;2023-05-15T04:21:41;101006.59;;;10.73;98.94
71109;BME280;59614;51.012;-1.648;2023-05-15T04:24:07;101010.19;;;10.63;98.45
71109;BME280;59614;51.012;-1.648;2023-05-15T04:26:32;101012.78;;;10.68;100.00
71109;BME280;59614;51.012;-1.648;2023-05-15T04:28:58;101006.63;;;10.64;98.30
71109;BME280;59614;51.012;-1.648;2023-05-15T04:31:25;101011.91;;;10.69;98.15
71109;BME280;59614;51.012;-1.648;2023-05-15T04:33:51;101014.59;;;10.59;97.67
71109;BME280;59614;51.012;-1.648;2023-05-15T04:36:17;101016.22;;;10.77;97.49
71109;BME280;59614;51.012;-1.648;2023-05-15T04:38:42;101024.28;;;10.59;97.38
71109;BME280;59614;51.012;-1.648;2023-05-15T04:41:08;101020.88;;;10.35;96.72
71109;BME280;59614;51.012;-1.648;2023-05-15T04:43:33;101027.06;;;10.26;95.95
71109;BME280;59614;51.012;-1.648;2023-05-15T04:45:58;101026.19;;;10.30;95.66
71109;BME280;59614;51.012;-1.648;2023-05-15T04:48:24;101026.22;;;10.26;95.73
71109;BME280;59614;51.012;-1.648;2023-05-15T04:50:50;101036.81;;;10.10;95.73
71109;BME280;59614;51.012;-1.648;2023-05-15T04:53:16;101035.88;;;10.25;95.96
71109;BME280;59614;51.012;-1.648;2023-05-15T04:55:41;101041.22;;;10.11;95.95
71109;BME280;59614;51.012;-1.648;2023-05-15T04:58:06;101047.38;;;10.13;95.79
71109;BME280;59614;51.012;-1.648;2023-05-15T05:00:32;101043.00;;;10.04;95.82
71109;BME280;59614;51.012;-1.648;2023-05-15T05:02:57;101040.22;;;10.31;95.12
71109;BME280;59614;51.012;-1.648;2023-05-15T05:05:23;101048.25;;;10.12;95.97
71109;BME280;59614;51.012;-1.648;2023-05-15T05:07:48;101045.59;;;10.20;94.32
71109;BME280;59614;51.012;-1.648;2023-05-15T05:10:16;101049.09;;;10.16;94.63
71109;BME280;59614;51.012;-1.648;2023-05-15T05:12:41;101047.50;;;9.82;95.37
71109;BME280;59614;51.012;-1.648;2023-05-15T05:15:07;101049.19;;;10.05;94.19
71109;BME280;59614;51.012;-1.648;2023-05-15T05:17:33;101049.16;;;10.03;94.03
71109;BME280;59614;51.012;-1.648;2023-05-15T05:19:58;101051.84;;;9.89;93.87
71109;BME280;59614;51.012;-1.648;2023-05-15T05:22:24;101053.53;;;10.11;93.96
71109;BME280;59614;51.012;-1.648;2023-05-15T05:24:49;101055.34;;;9.99;93.06
71109;BME280;59614;51.012;-1.648;2023-05-15T05:27:15;101059.78;;;9.82;93.89
71109;BME280;59614;51.012;-1.648;2023-05-15T05:29:40;101057.13;;;9.94;93.88
71109;BME280;59614;51.012;-1.648;2023-05-15T05:32:05;101069.41;;;10.00;92.53
71109;BME280;59614;51.012;-1.648;2023-05-15T05:34:31;101075.47;;;10.22;92.21
71109;BME280;59614;51.012;-1.648;2023-05-15T05:36:57;101070.22;;;10.11;91.31
71109;BME280;59614;51.012;-1.648;2023-05-15T05:39:22;101073.84;;;9.90;92.10
71109;BME280;59614;51.012;-1.648;2023-05-15T05:41:48;101071.19;;;9.96;92.18
71109;BME280;59614;51.012;-1.648;2023-05-15T05:44:13;101071.13;;;10.05;90.77
71109;BME280;59614;51.012;-1.648;2023-05-15T05:46:39;101076.47;;;9.92;91.72
71109;BME280;59614;51.012;-1.648;2023-05-15T05:49:04;101072.88;;;10.10;90.94
71109;BME280;59614;51.012;-1.648;2023-05-15T05:51:30;101085.94;;;10.45;89.30
71109;BME280;59614;51.012;-1.648;2023-05-15T05:53:55;101081.69;;;10.05;88.70
71109;BME280;59614;51.012;-1.648;2023-05-15T05:56:21;101088.66;;;10.20;89.75
71109;BME280;59614;51.012;-1.648;2023-05-15T05:58:46;101080.69;;;10.34;88.47
71109;BME280;59614;51.012;-1.648;2023-05-15T06:01:12;101093.09;;;10.12;88.32
71109;BME280;59614;51.012;-1.648;2023-05-15T06:03:38;101091.25;;;10.33;88.34
71109;BME280;59614;51.012;-1.648;2023-05-15T06:06:04;101094.81;;;10.19;88.73
71109;BME280;59614;51.012;-1.648;2023-05-15T06:08:29;101095.66;;;10.29;87.13
71109;BME280;59614;51.012;-1.648;2023-05-15T06:10:55;101089.47;;;10.36;87.59
71109;BME280;59614;51.012;-1.648;2023-05-15T06:13:21;101100.94;;;10.29;86.87
71109;BME280;59614;51.012;-1.648;2023-05-15T06:15:47;101100.13;;;10.13;86.29
71109;BME280;59614;51.012;-1.648;2023-05-15T06:18:12;101106.19;;;10.39;86.51
71109;BME280;59614;51.012;-1.648;2023-05-15T06:20:38;101101.81;;;10.25;85.95
71109;BME280;59614;51.012;-1.648;2023-05-15T06:23:03;101104.44;;;10.34;86.23
71109;BME280;59614;51.012;-1.648;2023-05-15T06:25:29;101107.13;;;10.22;85.28
71109;BME280;59614;51.012;-1.648;2023-05-15T06:27:54;101102.69;;;10.27;84.89
71109;BME280;59614;51.012;-1.648;2023-05-15T06:30:20;101115.91;;;10.29;84.93
71109;BME280;59614;51.012;-1.648;2023-05-15T06:32:46;101108.91;;;10.20;85.57
71109;BME280;59614;51.012;-1.648;2023-05-15T06:35:11;101122.09;;;10.23;84.78
71109;BME280;59614;51.012;-1.648;2023-05-15T06:37:37;101128.19;;;10.36;84.24
71109;BME280;59614;51.012;-1.648;2023-05-15T06:40:04;101130.78;;;10.50;83.97
71109;BME280;59614;51.012;-1.648;2023-05-15T06:42:29;101127.25;;;10.54;83.60
71109;BME280;59614;51.012;-1.648;2023-05-15T06:44:55;101120.06;;;10.82;83.68
71109;BME280;59614;51.012;-1.648;2023-05-15T06:47:21;101132.59;;;10.35;81.73
71109;BME280;59614;51.012;-1.648;2023-05-15T06:49:46;101140.47;;;10.49;82.50
71109;BME280;59614;51.012;-1.648;2023-05-15T06:52:11;101130.81;;;10.47;82.99
71109;BME280;59614;51.012;-1.648;2023-05-15T06:54:37;101135.97;;;10.67;82.82
71109;BME280;59614;51.012;-1.648;2023-05-15T06:57:04;101128.81;;;10.86;81.81
71109;BME280;59614;51.012;-1.648;2023-05-15T06:59:30;101128.81;;;10.89;81.66
71109;BME280;59614;51.012;-1.648;2023-05-15T07:01:58;101124.38;;;10.93;81.93
71109;BME280;59614;51.012;-1.648;2023-05-15T07:04:24;101129.78;;;10.74;81.40
71109;BME280;59614;51.012;-1.648;2023-05-15T07:06:50;101137.59;;;10.91;80.38
71109;BME280;59614;51.012;-1.648;2023-05-15T07:09:15;101133.97;;;11.05;80.15
71109;BME280;59614;51.012;-1.648;2023-05-15T07:11:41;101140.09;;;11.13;80.22
71109;BME280;59614;51.012;-1.648;2023-05-15T07:14:06;101141.59;;;11.45;79.74
71109;BME280;59614;51.012;-1.648;2023-05-15T07:16:31;101152.34;;;11.23;78.89
71109;BME280;59614;51.012;-1.648;2023-05-15T07:18:57;101150.47;;;11.36;78.74
71109;BME280;59614;51.012;-1.648;2023-05-15T07:21:22;101139.25;;;11.08;78.22
71109;BME280;59614;51.012;-1.648;2023-05-15T07:23:48;101153.25;;;11.19;77.85
71109;BME280;59614;51.012;-1.648;2023-05-15T07:26:13;101157.47;;;11.43;77.79
71109;BME280;59614;51.012;-1.648;2023-05-15T07:28:39;101161.06;;;11.36;76.58
71109;BME280;59614;51.012;-1.648;2023-05-15T07:31:06;101164.59;;;11.35;76.37
71109;BME280;59614;51.012;-1.648;2023-05-15T07:33:31;101154.84;;;11.42;76.80
71109;BME280;59614;51.012;-1.648;2023-05-15T07:35:57;101163.59;;;11.52;75.50
71109;BME280;59614;51.012;-1.648;2023-05-15T07:38:22;101161.69;;;11.68;76.15
71109;BME280;59614;51.012;-1.648;2023-05-15T07:40:48;101158.81;;;11.93;77.40
71109;BME280;59614;51.012;-1.648;2023-05-15T07:43:13;101155.25;;;11.95;74.53
71109;BME280;59614;51.012;-1.648;2023-05-15T07:45:39;101161.13;;;12.27;73.02
71109;BME280;59614;51.012;-1.648;2023-05-15T07:48:15;101164.88;;;12.04;72.26
71109;BME280;59614;51.012;-1.648;2023-05-15T07:50:41;101172.94;;;12.68;71.79
71109;BME280;59614;51.012;-1.648;2023-05-15T07:53:06;101167.44;;;12.13;71.77
71109;BME280;59614;51.012;-1.648;2023-05-15T07:55:32;101158.47;;;12.27;70.83
71109;BME280;59614;51.012;-1.648;2023-05-15T07:57:57;101157.72;;;12.84;69.84
71109;BME280;59614;51.012;-1.648;2023-05-15T08:00:23;101163.38;;;13.19;69.08
71109;BME280;59614;51.012;-1.648;2023-05-15T08:02:48;101166.50;;;12.88;66.24
71109;BME280;59614;51.012;-1.648;2023-05-15T08:05:14;101174.66;;;12.72;68.08
71109;BME280;59614;51.012;-1.648;2023-05-15T08:07:39;101165.00;;;13.31;66.46
71109;BME280;59614;51.012;-1.648;2023-05-15T08:10:06;101162.94;;;13.50;65.85
71109;BME280;59614;51.012;-1.648;2023-05-15T08:12:31;101154.72;;;13.65;64.13
71109;BME280;59614;51.012;-1.648;2023-05-15T08:14:57;101167.63;;;13.29;64.03
71109;BME280;59614;51.012;-1.648;2023-05-15T08:17:23;101165.72;;;13.42;63.13
71109;BME280;59614;51.012;-1.648;2023-05-15T08:19:49;101169.16;;;13.47;61.53
71109;BME280;59614;51.012;-1.648;2023-05-15T08:22:15;101166.59;;;13.44;62.06
71109;BME280;59614;51.012;-1.648;2023-05-15T08:24:41;101183.38;;;13.43;61.22
71109;BME280;59614;51.012;-1.648;2023-05-15T08:27:07;101160.94;;;13.05;59.57
71109;BME280;59614;51.012;-1.648;2023-05-15T08:29:34;101177.59;;;13.15;58.44
71109;BME280;59614;51.012;-1.648;2023-05-15T08:32:00;101179.84;;;12.81;56.93
71109;BME280;59614;51.012;-1.648;2023-05-15T08:34:26;101173.75;;;13.34;57.23
71109;BME280;59614;51.012;-1.648;2023-05-15T08:36:51;101187.94;;;12.67;56.13
71109;BME280;59614;51.012;-1.648;2023-05-15T08:39:17;101181.97;;;12.51;57.03
71109;BME280;59614;51.012;-1.648;2023-05-15T08:41:55;101182.22;;;13.00;56.52
71109;BME280;59614;51.012;-1.648;2023-05-15T08:44:22;101176.00;;;13.61;55.90
71109;BME280;59614;51.012;-1.648;2023-05-15T08:46:48;101175.16;;;14.09;54.95
71109;BME280;59614;51.012;-1.648;2023-05-15T08:51:43;101168.84;;;14.16;52.62
71109;BME280;59614;51.012;-1.648;2023-05-15T08:54:09;101168.06;;;14.53;52.40
71109;BME280;59614;51.012;-1.648;2023-05-15T08:56:35;101164.97;;;14.32;51.67
71109;BME280;59614;51.012;-1.648;2023-05-15T08:59:00;101173.38;;;14.55;50.51
71109;BME280;59614;51.012;-1.648;2023-05-15T09:01:27;101173.00;;;14.29;51.42
71109;BME280;59614;51.012;-1.648;2023-05-15T09:03:52;101170.06;;;14.86;52.05
71109;BME280;59614;51.012;-1.648;2023-05-15T09:06:18;101179.63;;;14.52;51.75
71109;BME280;59614;51.012;-1.648;2023-05-15T09:08:44;101174.00;;;14.22;52.51
71109;BME280;59614;51.012;-1.648;2023-05-15T09:11:11;101174.06;;;14.20;52.64
71109;BME280;59614;51.012;-1.648;2023-05-15T09:13:37;101177.38;;;14.76;53.10
71109;BME280;59614;51.012;-1.648;2023-05-15T09:16:02;101177.03;;;14.91;51.42
71109;BME280;59614;51.012;-1.648;2023-05-15T09:18:29;101181.59;;;14.42;52.97
71109;BME280;59614;51.012;-1.648;2023-05-15T09:20:54;101191.22;;;14.48;52.77
71109;BME280;59614;51.012;-1.648;2023-05-15T09:23:26;101187.09;;;14.77;51.08
71109;BME280;59614;51.012;-1.648;2023-05-15T09:25:52;101187.84;;;14.83;50.21
71109;BME280;59614;51.012;-1.648;2023-05-15T09:28:31;101187.34;;;15.43;49.61
71109;BME280;59614;51.012;-1.648;2023-05-15T09:30:59;101185.69;;;15.39;49.68
71109;BME280;59614;51.012;-1.648;2023-05-15T09:33:57;101187.19;;;14.28;52.21
71109;BME280;59614;51.012;-1.648;2023-05-15T09:36:23;101189.81;;;13.81;51.97
71109;BME280;59614;51.012;-1.648;2023-05-15T09:38:57;101184.94;;;14.07;51.28
71109;BME280;59614;51.012;-1.648;2023-05-15T09:41:24;101184.88;;;13.61;51.93
71109;BME280;59614;51.012;-1.648;2023-05-15T09:43:51;101187.63;;;13.53;52.79
71109;BME280;59614;51.012;-1.648;2023-05-15T09:46:17;101192.13;;;13.48;52.36
71109;BME280;59614;51.012;-1.648;2023-05-15T09:48:42;101201.53;;;13.08;52.80
71109;BME280;59614;51.012;-1.648;2023-05-15T09:51:15;101186.44;;;13.71;51.06
71109;BME280;59614;51.012;-1.648;2023-05-15T09:53:42;101178.56;;;13.67;50.97
71109;BME280;59614;51.012;-1.648;2023-05-15T09:56:08;101175.38;;;13.98;51.24
71109;BME280;59614;51.012;-1.648;2023-05-15T09:58:34;101179.00;;;14.83;50.19
71109;BME280;59614;51.012;-1.648;2023-05-15T10:01:00;101177.75;;;16.08;47.53
71109;BME280;59614;51.012;-1.648;2023-05-15T10:03:27;101188.19;;;15.07;47.45
71109;BME280;59614;51.012;-1.648;2023-05-15T10:05:59;101188.03;;;15.15;46.95
71109;BME280;59614;51.012;-1.648;2023-05-15T10:08:26;101188.97;;;15.49;47.05
71109;BME280;59614;51.012;-1.648;2023-05-15T10:10:58;101182.38;;;16.00;47.38
71109;BME280;59614;51.012;-1.648;2023-05-15T10:13:25;101187.00;;;16.58;45.51
71109;BME280;59614;51.012;-1.648;2023-05-15T10:15:51;101181.00;;;15.86;45.94
71109;BME280;59614;51.012;-1.648;2023-05-15T10:18:19;101186.53;;;16.43;45.42
71109;BME280;59614;51.012;-1.648;2023-05-15T10:20:46;101179.69;;;15.31;46.49
71109;BME280;59614;51.012;-1.648;2023-05-15T10:23:13;101182.25;;;15.34;44.35
71109;BME280;59614;51.012;-1.648;2023-05-15T10:25:49;101173.75;;;15.92;45.08
71109;BME280;59614;51.012;-1.648;2023-05-15T10:28:20;101171.47;;;16.72;45.23
71109;BME280;59614;51.012;-1.648;2023-05-15T10:30:47;101162.56;;;17.03;44.14
71109;BME280;59614;51.012;-1.648;2023-05-15T10:33:13;101169.00;;;16.96;44.72
71109;BME280;59614;51.012;-1.648;2023-05-15T10:35:40;101174.34;;;16.96;45.07
71109;BME280;59614;51.012;-1.648;2023-05-15T10:38:06;101178.50;;;16.45;45.72
71109;BME280;59614;51.012;-1.648;2023-05-15T10:40:36;101180.38;;;16.71;44.23
71109;BME280;59614;51.012;-1.648;2023-05-15T10:43:02;101162.97;;;16.89;44.09
71109;BME280;59614;51.012;-1.648;2023-05-15T10:45:28;101176.66;;;17.07;44.38
71109;BME280;59614;51.012;-1.648;2023-05-15T10:47:55;101179.59;;;16.99;46.12
71109;BME280;59614;51.012;-1.648;2023-05-15T10:50:22;101175.09;;;17.28;43.68
71109;BME280;59614;51.012;-1.648;2023-05-15T10:52:50;101192.88;;;17.01;42.53
71109;BME280;59614;51.012;-1.648;2023-05-15T10:55:16;101183.50;;;16.86;42.31
71109;BME280;59614;51.012;-1.648;2023-05-15T10:57:44;101179.22;;;17.38;41.42
71109;BME280;59614;51.012;-1.648;2023-05-15T11:00:23;101175.81;;;16.76;41.52
71109;BME280;59614;51.012;-1.648;2023-05-15T11:02:50;101201.47;;;16.17;43.21
71109;BME280;59614;51.012;-1.648;2023-05-15T11:05:20;101189.69;;;15.57;45.12
71109;BME280;59614;51.012;-1.648;2023-05-15T11:10:39;101193.44;;;16.80;45.72
71109;BME280;59614;51.012;-1.648;2023-05-15T11:13:05;101193.97;;;15.63;47.79
71109;BME280;59614;51.012;-1.648;2023-05-15T11:15:44;101206.94;;;16.11;49.66
71109;BME280;59614;51.012;-1.648;2023-05-15T11:18:10;101202.69;;;16.37;47.32
71109;BME280;59614;51.012;-1.648;2023-05-15T11:21:04;101196.06;;;15.86;47.93
71109;BME280;59614;51.012;-1.648;2023-05-15T11:23:25;101199.47;;;16.56;47.01
71109;BME280;59614;51.012;-1.648;2023-05-15T11:25:57;101200.34;;;16.25;46.69
71109;BME280;59614;51.012;-1.648;2023-05-15T11:28:24;101204.78;;;16.26;48.94
71109;BME280;59614;51.012;-1.648;2023-05-15T11:30:51;101216.44;;;15.87;47.90
71109;BME280;59614;51.012;-1.648;2023-05-15T11:33:19;101204.00;;;15.51;47.76
71109;BME280;59614;51.012;-1.648;2023-05-15T11:35:48;101206.19;;;15.35;47.59
71109;BME280;59614;51.012;-1.648;2023-05-15T11:38:24;101205.41;;;14.91;48.70
71109;BME280;59614;51.012;-1.648;2023-05-15T11:40:52;101209.22;;;15.56;46.24
71109;BME280;59614;51.012;-1.648;2023-05-15T11:48:41;101202.97;;;15.93;44.79
71109;BME280;59614;51.012;-1.648;2023-05-15T11:51:20;101190.28;;;16.97;43.36
71109;BME280;59614;51.012;-1.648;2023-05-15T11:53:48;101215.53;;;16.54;44.40
71109;BME280;59614;51.012;-1.648;2023-05-15T11:56:20;101210.88;;;15.60;44.66
71109;BME280;59614;51.012;-1.648;2023-05-15T11:58:51;101211.91;;;15.17;45.61
71109;BME280;59614;51.012;-1.648;2023-05-15T12:01:16;101203.03;;;16.25;46.38
71109;BME280;59614;51.012;-1.648;2023-05-15T12:03:42;101180.97;;;17.66;42.34
71109;BME280;59614;51.012;-1.648;2023-05-15T12:06:09;101182.44;;;17.75;43.64
71109;BME280;59614;51.012;-1.648;2023-05-15T12:08:35;101193.69;;;17.03;45.00
71109;BME280;59614;51.012;-1.648;2023-05-15T12:11:03;101208.59;;;16.78;46.22
71109;BME280;59614;51.012;-1.648;2023-05-15T12:13:29;101210.69;;;16.37;46.21
71109;BME280;59614;51.012;-1.648;2023-05-15T12:15:56;101209.25;;;15.90;47.58
71109;BME280;59614;51.012;-1.648;2023-05-15T12:18:22;101203.78;;;15.60;48.04
71109;BME280;59614;51.012;-1.648;2023-05-15T12:20:50;101198.09;;;15.38;46.73
71109;BME280;59614;51.012;-1.648;2023-05-15T12:23:17;101207.59;;;15.86;46.37
71109;BME280;59614;51.012;-1.648;2023-05-15T12:25:45;101204.28;;;16.11;47.87
71109;BME280;59614;51.012;-1.648;2023-05-15T12:28:11;101204.81;;;16.56;44.06
71109;BME280;59614;51.012;-1.648;2023-05-15T12:30:38;101204.34;;;16.41;44.44
71109;BME280;59614;51.012;-1.648;2023-05-15T12:33:05;101204.63;;;16.32;44.11
71109;BME280;59614;51.012;-1.648;2023-05-15T12:35:42;101196.00;;;16.54;44.72
71109;BME280;59614;51.012;-1.648;2023-05-15T12:38:08;101204.19;;;15.80;44.47
71109;BME280;59614;51.012;-1.648;2023-05-15T12:40:34;101199.66;;;15.47;44.92
71109;BME280;59614;51.012;-1.648;2023-05-15T12:43:07;101206.44;;;15.60;46.16
71109;BME280;59614;51.012;-1.648;2023-05-15T12:45:33;101203.50;;;15.35;49.03
71109;BME280;59614;51.012;-1.648;2023-05-15T12:48:01;101210.44;;;15.77;48.31
71109;BME280;59614;51.012;-1.648;2023-05-15T12:50:27;101212.03;;;15.87;47.92
71109;BME280;59614;51.012;-1.648;2023-05-15T12:53:00;101209.00;;;16.00;47.17
71109;BME280;59614;51.012;-1.648;2023-05-15T12:55:33;101217.97;;;15.97;47.43
71109;BME280;59614;51.012;-1.648;2023-05-15T12:58:02;101212.09;;;16.50;45.00
71109;BME280;59614;51.012;-1.648;2023-05-15T13:00:30;101201.84;;;17.26;44.69